cucrzr marine shipbuilding

Home > copper c38500 mali > cucrzr marine shipbuilding

B3004/B3004 aviation photos on JetPhotos Jetphotos.com

JetPhotos.com is the biggest database of aviation photographs with over 4 ... B3004 Lockheed L100 Hercules Civil Aviation Administration of China .

F15 LN 3004 Air fighter, Helicopter plane, Jet plane Pinterest

A fast jet Hawk from 208 Squadron at Royal Air Force Valley is pictured following a training flight schedule. Hawk aircraft help train the future combat ...

800730041 BRUSHES Textron Aviation

800730041 BRUSHES : Quality parts for Beechcraft, Cessna and Hawker aircraft with same day shipping and worldwide distribution centers.

13430041 Textron Aviation

TEXTRON AVIATION PART NUMBER. 13430041. KIT, GLARESHIELD MIC SHIELD. Unit of Measure: EA ECCN: 9A610 Part Type: Proprietary. Want to see more

Department of Aeronautical and Aviation Engineering: Home

... AAE3003 Aircraft Propulsion Systems middot AAE3004 Dynamical Systems and Control middot AAE3005 Introduction to Aircraft Design and Aviation Systems ...

Sitemap Department of Aeronautical and Aviation Engineering

... AAE3003 Aircraft Propulsion Systems middot AAE3004 Dynamical Systems And Control middot AAE3005 Introduction To Aircraft Design And Aviation Systems ...

AWC METeorological Aerodrome Reports METARs

Aviation Weather Center Homepage provides comprehensive userfriendly ... KDFW 281653Z VRB05KT 10SM BKN047 BKN060 34/22 A3004 RMK AO2 SLP162 T03440222 ...

METeorological Aerodrome Reports METARs AWC

Aviation Weather Center Homepage provides comprehensive userfriendly aviation ... KASX 081553Z AUTO 03008KT 10SM CLR 17/10 A3004 RMK AO2 SLP175 T01720100

AVCcPCI 3004 Advanced Vehicle Computer Abaco Systems

AVCcPCI 3004 provides a rugged, yet highly flexible COTS computing platform suited for ... Hypersonic Flight Raises the Bar for Embedded Electronics ...

Bagdogra to Agartala Flight, Airfare 3004 upto 650 ...

IXA Agartala, India. 15:35. Layover Kolkata 1h 10m. 3,004. BOOK. Flight Details. DealUpto Rs 1100 OFF using code SUPERDEAL. IndiGo. IXB Bagdogra, India.

Aviation

THERE ARE CURRENTLY NO WATCHES NOR WARNINGS. Aviation ... TJSJ 010156Z 10004KT 5SM RA BR SCT029 SCT045 27/26 A3004 RMK AO2 RAE35B55 TSE52 SLP170 TS MOVD NW ...

Aviation Pilot Programme, BSc Hons UCLan

EI3001: Aircraft Type Specifics middot EI3002: Airline Integration middot EI3003: Research Skills in Aviation middot EI3004: IndustryLed Project 1: Threat and Error Management ...

S.3004 116th Congress 20192020 : GLOBE Act of 2019 ...

Summary of S.3004 116th Congress 20192020 : GLOBE Act of 2019.

Search Our Airline Database Flightradar24

Flightradar24 is the best live flight tracker that shows air traffic in real time. ... Aegean Airlines, A3 / AEE, 51 aircraft.

Mr Jeremy Andrews School of Aviation UNSW Aviation

Jeremys aviation career spans 35 years of flying and teaching theory. He spent 10 years working as a ... AVIA3004 Advanced Flying Training Instructor.

Licensing forms and bonds UK Civil Aviation Authority

Parent Guarantee / Subordinated Loan Form middot CPG 3003 ATOL Form 1401/02 Deed of Subordination of a Loan Limited Company to Limited Company middot CPG 3004 ATOL ...

Norwegian Air applies for bankruptcy protection for ...

2020/11/22 ... Arctic Aviation Assets DAC AAA s activity is the lo ion of Airbus 320 since 2016. Both subsidiaries are lo ed in South Ireland.

Aviation Axis Communi ions

Several airports have chosen Axis network video solutions to meet their tough surveillance needs. With the markets broadest range of IP cameras, Axis enables ...

Louisiana Airport Directory LaDOTD Aviation

FACILITY : JENA AIRPORT 275 Hangar Rd./ HIGHWAY 8. Jena, LA 71342. PHONE : 3189923004. FAX : SITE CODE : 1R1. CONTACT : AIRPORT MANAGER: WALTER DORROH.

Revised Listing of Amateur Built Aircraft Kits Federal Aviation ...

2021/6/22 ... FAA Order 8130.35B, AmateurBuilt Aircraft National Kit Evaluation Team ... parts list 4023004201 dated 03/20/00, 4023004021 dated.

PRE Post:conicr 26-20 alloy mexico
NEXT Post:enicr alloy hong kong

Changqian copper aluminium and alloy

copper c38500 mali

b94 aluminium denmark

2.4633 alloy romania

Copyright © .Changqian copper aluminium and alloy Industry Co.,Ltd All Rights Reserved.


Technical Support : Qianxing